Flight Track Log - Related Links

Times and Time Zones

All times are in EDT time to prevent confusion due to time zone crossing. See the DAL6232 flight status page for this flight to view local times or setup timezone preferences in your user account.

Time Position Orientation Groundspeed Altitude Reporting Facility
EDT Latitude Longitude Course Direction KTS MPH feet Rate Location/Type
Mon 08:48:46 AM 44.8667 -63.5000 19° North 140 161 800  Level Moncton Center
Mon 08:49:46 AM 44.9000 -63.4833 20° North 150 173 3,200 2,150 Climbing Moncton Center
Mon 08:50:46 AM 44.9500 -63.4333 35° Northeast 200 230 5,100 2,450 Climbing Moncton Center
Mon 08:51:46 AM 44.9667 -63.5167 286° West 260 299 8,100 3,000 Climbing Moncton Center
Mon 08:52:46 AM 44.9667 -63.6333 270° West 280 322 11,100 2,650 Climbing Moncton Center
Mon 08:53:46 AM 44.9500 -63.7333 257° West 280 322 13,400 2,100 Climbing Moncton Center
Mon 08:54:46 AM 44.9500 -63.8833 270° West 330 380 15,300 2,100 Climbing Moncton Center
Mon 08:55:46 AM 44.9500 -64.0000 270° West 340 391 17,600 2,000 Climbing Moncton Center
Mon 08:56:46 AM 44.9667 -64.1333 280° West 340 391 19,300 2,000 Climbing Moncton Center
Mon 08:57:46 AM 44.9833 -64.2500 281° West 340 391 21,600 2,300 Climbing Moncton Center
Mon 08:58:46 AM 45.0167 -64.4000 287° West 330 380 23,900 1,850 Climbing Moncton Center
Mon 08:59:46 AM 45.0333 -64.5167 281° West 330 380 25,300 1,300 Climbing Moncton Center
Mon 09:00:46 AM 45.0667 -64.6500 290° West 350 403 26,500 1,200 Climbing Moncton Center
Mon 09:01:46 AM 45.0833 -64.7833 280° West 360 414 27,700 1,250 Climbing Moncton Center
Mon 09:02:46 AM 45.1167 -64.9167 290° West 360 414 29,000 1,150 Climbing Moncton Center
Mon 09:03:46 AM 45.1500 -65.0667 288° West 360 414 30,000 800 Climbing Moncton Center
Mon 09:04:46 AM 45.1667 -65.2000 280° West 370 426 30,600 800 Climbing Moncton Center
Mon 09:05:46 AM 45.1500 -65.3500 261° West 370 426 31,600 1,000 Climbing Moncton Center
Mon 09:06:46 AM 45.1333 -65.4833 260° West 360 414 32,600 1,000 Climbing Moncton Center
Mon 09:07:46 AM 45.1333 -65.6333 270° West 360 414 33,600 700 Climbing Moncton Center
Mon 09:08:46 AM 45.1167 -65.7667 260° West 360 414 34,000 200 Climbing Moncton Center
Mon 09:09:46 AM 45.1167 -65.9167 270° West 360 414 34,000  Level Moncton Center
Mon 09:10:46 AM 45.1000 -66.0500 260° West 360 414 34,000  Level Moncton Center
Mon 09:11:46 AM 45.1000 -66.2000 270° West 360 414 34,000  Level Moncton Center
Mon 09:12:46 AM 45.0667 -66.3333 251° West 360 414 34,000  Level Moncton Center
Mon 09:13:46 AM 45.0500 -66.4833 261° West 360 414 34,000  Level Moncton Center
Mon 09:14:46 AM 45.0500 -66.6167 270° West 360 414 34,000  Level Moncton Center
Mon 09:15:46 AM 45.0333 -66.7667 261° West 360 414 34,000  Level Moncton Center
Mon 09:16:46 AM 45.0333 -66.9000 270° West 360 414 34,000  Level Moncton Center
Mon 09:17:46 AM 45.0000 -67.0500 253° West 360 414 34,000  Level Moncton Center
Mon 09:18:46 AM 45.0000 -67.1833 270° West 360 414 34,000  Level Moncton Center
Mon 09:19:46 AM 44.9833 -67.3333 261° West 360 414 34,000  Level Moncton Center
Mon 09:20:46 AM 44.9667 -67.4667 260° West 360 414 34,000  Level Moncton Center
Mon 09:21:46 AM 44.9667 -67.6167 270° West 360 414 34,000  Level Moncton Center
Mon 09:22:15 AM 44.9669 -67.6628 271° West 372 428 34,000  Level Boston Center
Mon 09:23:15 AM 44.9517 -67.8050 261° West 372 428 34,000  Level Boston Center
Mon 09:23:46 AM 44.9333 -67.9000 255° West 360 414 34,000  Level Moncton Center
Mon 09:24:46 AM 44.9167 -68.0333 260° West 370 426 34,000  Level Moncton Center
Mon 09:25:46 AM 44.9000 -68.1833 261° West 370 426 34,000  Level Moncton Center
Mon 09:26:27 AM 44.9072 -68.2747 276° West 372 428 34,000  Level Boston Center
Mon 09:27:27 AM 44.8933 -68.4167 262° West 372 428 34,000  Level Boston Center
Mon 09:28:27 AM 44.8775 -68.5583 261° West 372 428 34,000  Level Boston Center
Mon 09:29:27 AM 44.8614 -68.7028 261° West 372 428 34,000  Level Boston Center
Mon 09:30:27 AM 44.8450 -68.8475 261° West 372 428 34,000  Level Boston Center
Mon 09:31:27 AM 44.8108 -68.9550 246° West 372 428 34,000  Level Boston Center
Mon 09:32:27 AM 44.7586 -69.0925 242° Southwest 367 422 34,000  Level Boston Center
Mon 09:33:27 AM 44.7081 -69.2153 240° Southwest 372 428 34,000  Level Boston Center
Mon 09:34:27 AM 44.6592 -69.3406 241° Southwest 372 428 34,000  Level Boston Center
Mon 09:35:27 AM 44.6083 -69.4658 240° Southwest 372 428 34,000  Level Boston Center
Mon 09:36:27 AM 44.5594 -69.5906 241° Southwest 372 428 34,000  Level Boston Center
Mon 09:37:27 AM 44.5106 -69.7181 242° Southwest 372 428 34,000  Level Boston Center
Mon 09:38:27 AM 44.4553 -69.8544 240° Southwest 372 428 34,000  Level Boston Center
Mon 09:39:27 AM 44.4036 -69.9758 239° Southwest 372 428 34,000  Level Boston Center
Mon 09:40:27 AM 44.3522 -70.1031 241° Southwest 372 428 34,000  Level Boston Center
Mon 09:41:27 AM 44.3025 -70.2267 241° Southwest 372 428 34,000  Level Boston Center
Mon 09:42:27 AM 44.2506 -70.3503 240° Southwest 372 428 34,000  Level Boston Center
Mon 09:43:27 AM 44.2008 -70.4739 241° Southwest 372 428 34,000  Level Boston Center
Mon 09:44:27 AM 44.1508 -70.5997 241° Southwest 372 428 34,000  Level Boston Center
Mon 09:46:27 AM 44.0461 -70.8486 240° Southwest 378 435 34,000  Level Boston Center
Mon 09:47:27 AM 43.9914 -70.9711 238° Southwest 378 435 34,000  Level Boston Center
Mon 09:48:39 AM 43.9308 -71.1197 241° Southwest 378 435 34,000  Level Boston Center
Mon 09:49:39 AM 43.8800 -71.2419 240° Southwest 384 442 34,000  Level Boston Center
Mon 09:50:39 AM 43.8333 -71.3550 240° Southwest 384 442 34,000  Level Boston Center
Mon 09:51:39 AM 43.7781 -71.4769 238° Southwest 384 442 34,000  Level Boston Center
Mon 09:52:39 AM 43.7269 -71.6042 241° Southwest 384 442 34,000  Level Boston Center
Mon 09:53:39 AM 43.6756 -71.7281 240° Southwest 384 442 34,000  Level Boston Center
Mon 09:54:39 AM 43.6200 -71.8494 238° Southwest 384 442 34,000  Level Boston Center
Mon 09:55:39 AM 43.5664 -71.9758 240° Southwest 384 442 34,000  Level Boston Center
Mon 09:56:39 AM 43.5128 -72.1053 240° Southwest 384 442 34,000  Level Boston Center
Mon 09:57:39 AM 43.4589 -72.2283 239° Southwest 384 442 34,000  Level Boston Center
Mon 09:58:39 AM 43.4028 -72.3572 239° Southwest 384 442 34,000  Level Boston Center
Mon 09:59:51 AM 43.3361 -72.5086 239° Southwest 384 442 34,000  Level Boston Center
Mon 10:00:51 AM 43.2775 -72.6369 238° Southwest 384 442 34,000 -150 Level Boston Center
Mon 10:01:51 AM 43.2211 -72.7650 239° Southwest 384 442 33,700 -1,000 Descending Boston Center
Mon 10:02:51 AM 43.1644 -72.8897 238° Southwest 384 442 32,000 -1,700 Descending Boston Center
Mon 10:03:51 AM 43.1117 -73.0117 239° Southwest 384 442 30,300 -1,750 Descending Boston Center
Mon 10:04:51 AM 43.0547 -73.1333 237° Southwest 384 442 28,500 -1,850 Descending Boston Center
Mon 10:05:51 AM 42.9997 -73.2606 239° Southwest 384 442 26,600 -1,950 Descending Boston Center
Mon 10:06:51 AM 42.9406 -73.3789 236° Southwest 384 442 24,600 -1,300 Descending Boston Center
Mon 10:07:51 AM 42.8853 -73.4997 238° Southwest 384 442 24,000 -800 Descending Boston Center
Mon 10:08:51 AM 42.8278 -73.6319 239° Southwest 384 442 23,000 -950 Descending Boston Center
Mon 10:09:51 AM 42.7764 -73.7356 236° Southwest 379 436 22,100 -500 Descending Boston Center
Mon 10:10:51 AM 42.6944 -73.7989 210° Southwest 347 399 22,000 -50 Descending Boston Center
Mon 10:11:51 AM 42.5781 -73.7708 170° South 337 388 22,000 -450 Level Boston Center
Mon 10:12:51 AM 42.4761 -73.7519 172° South 351 404 21,100 -950 Descending Boston Center
Mon 10:13:51 AM 42.3722 -73.7300 171° South 372 428 20,100 -900 Descending Boston Center
Mon 10:14:51 AM 42.2892 -73.7114 171° South 377 434 19,300 -950 Descending Boston Center
Mon 10:15:51 AM 42.1683 -73.6867 171° South 377 434 18,200 -650 Descending Boston Center
Mon 10:16:51 AM 42.0683 -73.6817 178° South 364 419 18,000 -100 Descending Boston Center
Mon 10:17:51 AM 41.9808 -73.6969 187° South 358 412 18,000  Level Boston Center
Mon 10:18:51 AM 41.8722 -73.7142 187° South 366 421 18,000 -700 Level Boston Center
Mon 10:19:51 AM 41.7867 -73.7264 186° South 361 415 16,600 -1,650 Descending Boston Center
Mon 10:20:51 AM 41.6781 -73.7464 188° South 361 415 14,700 -1,700 Descending Boston Center
Mon 10:21:51 AM 41.5903 -73.7614 187° South 361 415 13,200 -1,667 Descending Boston Center
Mon 10:22:21 AM 41.5333 -73.7667 184° South 340 391 12,200 -1,800 Descending New York TRACON
Mon 10:23:21 AM 41.4500 -73.7833 189° South 324 373 10,500 -1,450 Descending New York TRACON
Mon 10:24:21 AM 41.3667 -73.8000 189° South 273 314 9,300 -750 Descending New York TRACON
Mon 10:25:21 AM 41.3000 -73.7500 151° Southeast 265 305 9,000 -300 Descending New York TRACON
Mon 10:26:21 AM 41.2333 -73.7000 151° Southeast 234 269 8,700 -700 Descending New York TRACON
Mon 10:27:21 AM 41.2000 -73.6667 143° Southeast 198 228 7,600 -1,200 Descending New York TRACON
Mon 10:28:21 AM 41.1500 -73.6333 153° Southeast 183 211 6,300 -1,250 Descending New York TRACON
Mon 10:29:21 AM 41.1167 -73.6000 143° Southeast 188 216 5,100 -1,100 Descending New York TRACON
Mon 10:30:21 AM 41.0667 -73.6333 207° Southwest 202 232 4,100 -550 Descending New York TRACON
Mon 10:31:21 AM 41.0167 -73.6833 217° Southwest 203 234 4,000 -50 Descending New York TRACON
Mon 10:32:21 AM 40.9833 -73.7333 229° Southwest 209 241 4,000 50 Level New York TRACON
Mon 10:33:21 AM 40.9667 -73.8000 252° West 208 239 4,100 50 Climbing New York TRACON
Mon 10:34:21 AM 40.9333 -73.8500 229° Southwest 194 223 4,100 -50 Level New York TRACON
Mon 10:35:21 AM 40.8833 -73.8833 207° Southwest 191 220 4,000 -50 Descending New York TRACON
Mon 10:36:21 AM 40.8333 -73.9167 207° Southwest 187 215 4,000  Level New York TRACON
Mon 10:37:21 AM 40.7833 -73.9667 217° Southwest 190 219 4,000 -250 Level New York TRACON
Mon 10:38:21 AM 40.7500 -74.0000 217° Southwest 192 221 3,500 -450 Descending New York TRACON
Mon 10:39:21 AM 40.7000 -74.0333 207° Southwest 194 223 3,100 -200 Descending New York TRACON
Mon 10:40:21 AM 40.6500 -74.0667 207° Southwest 196 226 3,100 -50 Level New York TRACON
Mon 10:41:21 AM 40.6000 -74.1000 207° Southwest 201 231 3,000 -100 Descending New York TRACON

Login

Don't have an account? Register now (free) for customized features, flight alerts, and more!